Time;durP1;ratioP1;P1;durP2;ratioP2;P2;SDS_P1;SDS_P2;PMS_P1;PMS_P2;Temp;Humidity;BMP_temperature;BMP_pressure;BME280_temperature;BME280_humidity;BME280_pressure;Samples;Min_cycle;Max_cycle;Signal;HPM_P1;HPM_P2
2023/06/17 00:02:18;;;;;;;14.00;8.82;;;;;;;;;;4969634;28;20400;-68
2023/06/17 00:04:44;;;;;;;15.52;8.57;;;;;;;;;;4952803;28;20046;-68
2023/06/17 00:07:10;;;;;;;11.57;7.68;;;;;;;;;;4935895;28;20047;-68
2023/06/17 00:09:38;;;;;;;13.77;8.80;;;;;;;;;;4969945;28;20511;-68
2023/06/17 00:12:05;;;;;;;19.42;8.05;;;;;;;;;;4968035;28;20118;-69
2023/06/17 00:14:32;;;;;;;12.88;8.05;;;;;;;;;;4965258;28;20046;-69
2023/06/17 00:17:00;;;;;;;14.68;7.45;;;;;;;;;;4954654;28;20055;-68
2023/06/17 00:19:28;;;;;;;15.77;8.93;;;;;;;;;;4952114;28;20539;-68
2023/06/17 00:21:54;;;;;;;12.63;8.95;;;;;;;;;;4969391;28;20034;-68
2023/06/17 00:24:20;;;;;;;13.38;9.38;;;;;;;;;;4963477;23;20043;-57
2023/06/17 00:26:47;;;;;;;12.32;9.05;;;;;;;;;;4922662;28;20043;-58
2023/06/17 00:29:13;;;;;;;12.88;9.27;;;;;;;;;;4943038;28;20051;-58
2023/06/17 00:31:39;;;;;;;12.80;9.10;;;;;;;;;;4941400;28;20183;-56
2023/06/17 00:34:05;;;;;;;14.20;8.95;;;;;;;;;;4939334;28;20081;-57
2023/06/17 00:36:31;;;;;;;14.25;9.00;;;;;;;;;;4940588;28;20040;-57
2023/06/17 00:38:57;;;;;;;15.00;8.55;;;;;;;;;;4942411;29;20043;-57
2023/06/17 00:41:23;;;;;;;20.60;10.45;;;;;;;;;;4939736;29;20063;-55
2023/06/17 00:43:50;;;;;;;16.45;9.07;;;;;;;;;;4944189;28;20040;-58
2023/06/17 00:46:25;;;;;;;14.32;9.80;;;;;;;;;;4942610;28;20050;-58
2023/06/17 00:48:51;;;;;;;16.33;10.60;;;;;;;;;;4942768;28;20054;-55
2023/06/17 00:51:17;;;;;;;18.67;11.23;;;;;;;;;;4937316;28;20063;-54
2023/06/17 00:53:43;;;;;;;15.50;10.65;;;;;;;;;;4922455;29;20053;-57
2023/06/17 00:56:10;;;;;;;18.08;10.95;;;;;;;;;;4941366;29;20058;-58
2023/06/17 00:58:36;;;;;;;14.13;10.75;;;;;;;;;;4945543;29;20050;-54
2023/06/17 01:01:02;;;;;;;15.75;9.52;;;;;;;;;;4946066;29;20575;-57
2023/06/17 01:03:29;;;;;;;18.40;10.77;;;;;;;;;;4928405;29;20682;-57
2023/06/17 01:05:56;;;;;;;19.52;12.60;;;;;;;;;;4947474;28;20043;-58
2023/06/17 01:08:28;;;;;;;17.52;11.82;;;;;;;;;;4944390;29;20075;-57
2023/06/17 01:11:10;;;;;;;16.90;10.68;;;;;;;;;;4944487;29;20039;-55
2023/06/17 01:13:37;;;;;;;16.58;10.75;;;;;;;;;;4944628;28;20047;-57
2023/06/17 01:16:04;;;;;;;22.15;11.25;;;;;;;;;;4941585;29;20055;-57
2023/06/17 01:18:31;;;;;;;17.30;11.15;;;;;;;;;;4945187;29;20035;-57
2023/06/17 01:20:58;;;;;;;17.27;10.55;;;;;;;;;;4945918;29;20420;-55
2023/06/17 01:23:31;;;;;;;16.17;9.25;;;;;;;;;;4945254;28;20046;-57
2023/06/17 01:25:57;;;;;;;17.63;10.52;;;;;;;;;;4945307;29;20075;-56
2023/06/17 01:28:24;;;;;;;16.13;11.00;;;;;;;;;;4945366;29;20191;-57
2023/06/17 01:30:56;;;;;;;19.60;11.10;;;;;;;;;;4947684;29;20035;-58
2023/06/17 01:33:26;;;;;;;14.45;10.55;;;;;;;;;;4925918;29;20046;-56
2023/06/17 01:35:59;;;;;;;18.55;11.60;;;;;;;;;;4946870;29;20035;-53
2023/06/17 01:38:38;;;;;;;20.30;11.07;;;;;;;;;;4944625;29;20493;-55
2023/06/17 01:41:11;;;;;;;20.23;11.88;;;;;;;;;;4943119;29;20633;-56
2023/06/17 01:43:39;;;;;;;19.25;13.15;;;;;;;;;;4942249;28;20082;-55
2023/06/17 01:46:06;;;;;;;17.73;12.73;;;;;;;;;;4942193;29;20048;-56
2023/06/17 01:48:33;;;;;;;21.40;12.02;;;;;;;;;;4944652;28;20086;-54
2023/06/17 01:50:59;;;;;;;16.25;12.20;;;;;;;;;;4943003;29;20050;-57
2023/06/17 01:53:25;;;;;;;16.10;11.85;;;;;;;;;;4944738;28;20047;-55
2023/06/17 01:55:52;;;;;;;18.98;13.02;;;;;;;;;;4945161;28;20040;-57
2023/06/17 01:58:18;;;;;;;20.42;13.18;;;;;;;;;;4945600;29;20043;-57
2023/06/17 02:00:44;;;;;;;19.45;13.82;;;;;;;;;;4929139;29;20156;-54
2023/06/17 02:03:10;;;;;;;21.83;12.93;;;;;;;;;;4944200;28;20050;-57
2023/06/17 02:05:36;;;;;;;20.65;13.52;;;;;;;;;;4945617;29;20097;-58
2023/06/17 02:08:05;;;;;;;20.77;14.75;;;;;;;;;;4944455;29;20461;-58
2023/06/17 02:10:31;;;;;;;18.67;15.52;;;;;;;;;;4945500;28;20067;-55
2023/06/17 02:12:57;;;;;;;18.17;14.63;;;;;;;;;;4944084;28;21984;-58
2023/06/17 02:15:23;;;;;;;20.85;15.27;;;;;;;;;;4924889;29;20101;-57
2023/06/17 02:17:51;;;;;;;22.48;15.20;;;;;;;;;;4945841;28;20031;-57
2023/06/17 02:20:18;;;;;;;20.40;14.32;;;;;;;;;;4944726;29;20461;-55
2023/06/17 02:22:44;;;;;;;19.80;14.98;;;;;;;;;;4926815;29;20035;-57
2023/06/17 02:25:10;;;;;;;20.75;15.77;;;;;;;;;;4941098;29;20035;-55
2023/06/17 02:27:36;;;;;;;22.92;16.65;;;;;;;;;;4940329;28;20128;-57
2023/06/17 02:30:02;;;;;;;22.27;15.32;;;;;;;;;;4946238;29;20425;-58
2023/06/17 02:32:28;;;;;;;21.20;15.90;;;;;;;;;;4927346;28;20043;-57
2023/06/17 02:34:54;;;;;;;20.55;14.90;;;;;;;;;;4940646;28;20802;-55
2023/06/17 02:37:20;;;;;;;19.92;13.90;;;;;;;;;;4941960;29;20501;-56
2023/06/17 02:39:46;;;;;;;21.70;15.43;;;;;;;;;;4939810;28;20523;-55
2023/06/17 02:42:12;;;;;;;20.08;14.75;;;;;;;;;;4925710;29;20043;-57
2023/06/17 02:44:38;;;;;;;19.52;14.48;;;;;;;;;;4943938;28;20046;-56
2023/06/17 02:47:04;;;;;;;19.70;14.90;;;;;;;;;;4939312;29;20402;-55
2023/06/17 02:49:30;;;;;;;19.77;14.35;;;;;;;;;;4942822;28;20047;-57
2023/06/17 02:51:56;;;;;;;17.67;13.50;;;;;;;;;;4942594;28;20452;-56
2023/06/17 02:54:22;;;;;;;19.98;13.80;;;;;;;;;;4910473;29;20097;-57
2023/06/17 02:56:48;;;;;;;20.20;14.23;;;;;;;;;;4945355;29;20093;-55
2023/06/17 02:59:15;;;;;;;16.35;12.30;;;;;;;;;;4942836;29;20040;-57
2023/06/17 03:01:42;;;;;;;17.75;12.57;;;;;;;;;;4943727;29;20055;-57
2023/06/17 03:04:09;;;;;;;23.73;14.07;;;;;;;;;;4905541;29;20516;-57
2023/06/17 03:06:36;;;;;;;21.10;14.20;;;;;;;;;;4989659;23;20055;-55
2023/06/17 03:09:05;;;;;;;24.33;13.05;;;;;;;;;;4941758;28;20035;-55
2023/06/17 03:11:31;;;;;;;19.42;12.27;;;;;;;;;;4959847;28;20149;-56
2023/06/17 03:13:57;;;;;;;16.48;11.25;;;;;;;;;;4951568;28;20043;-57
2023/06/17 03:16:24;;;;;;;22.63;12.95;;;;;;;;;;4944512;28;20043;-56
2023/06/17 03:18:50;;;;;;;15.07;11.70;;;;;;;;;;4907563;29;20047;-55
2023/06/17 03:21:16;;;;;;;17.52;12.20;;;;;;;;;;4906418;28;20047;-52
2023/06/17 03:23:42;;;;;;;17.52;12.15;;;;;;;;;;4940622;28;20041;-55
2023/06/17 03:26:11;;;;;;;21.70;12.93;;;;;;;;;;4944769;28;20146;-55
2023/06/17 03:28:37;;;;;;;16.35;12.07;;;;;;;;;;4945027;28;22058;-55
2023/06/17 03:31:03;;;;;;;18.30;12.75;;;;;;;;;;4946896;28;20035;-55
2023/06/17 03:33:29;;;;;;;19.30;12.43;;;;;;;;;;4925567;28;20854;-55
2023/06/17 03:35:57;;;;;;;20.98;12.43;;;;;;;;;;4945368;28;20138;-54
2023/06/17 03:38:23;;;;;;;18.58;12.50;;;;;;;;;;4946586;28;20118;-54
2023/06/17 03:40:49;;;;;;;18.10;12.30;;;;;;;;;;4927867;28;20039;-54
2023/06/17 03:43:15;;;;;;;19.90;10.50;;;;;;;;;;4927761;29;20102;-55
2023/06/17 03:45:41;;;;;;;17.83;12.18;;;;;;;;;;4929146;29;20051;-55
2023/06/17 03:48:07;;;;;;;17.50;12.77;;;;;;;;;;4943647;28;20050;-54
2023/06/17 03:50:33;;;;;;;22.88;12.43;;;;;;;;;;4942088;28;20354;-55
2023/06/17 03:52:59;;;;;;;16.63;12.65;;;;;;;;;;4929682;28;20046;-54
2023/06/17 03:55:25;;;;;;;15.82;11.50;;;;;;;;;;4942373;28;20639;-56
2023/06/17 03:57:52;;;;;;;22.35;12.65;;;;;;;;;;4942723;28;20047;-56
2023/06/17 04:00:19;;;;;;;21.52;13.15;;;;;;;;;;4943352;28;20036;-55
2023/06/17 04:02:45;;;;;;;20.70;13.40;;;;;;;;;;4942546;28;20114;-55
2023/06/17 04:05:15;;;;;;;20.77;12.57;;;;;;;;;;4944248;28;20043;-55
2023/06/17 04:07:42;;;;;;;18.65;12.23;;;;;;;;;;4944070;28;20047;-55
2023/06/17 04:10:08;;;;;;;15.88;10.98;;;;;;;;;;4942391;28;20490;-54
2023/06/17 04:12:37;;;;;;;18.15;12.15;;;;;;;;;;4942037;28;20039;-55
2023/06/17 04:15:34;;;;;;;17.60;11.50;;;;;;;;;;4975837;23;20047;-83
2023/06/17 04:18:27;;;;;;;20.92;13.48;;;;;;;;;;4947664;28;20046;-87
2023/06/17 04:21:15;;;;;;;;;;;;;;;;;;;;;
2023/06/17 04:23:44;;;;;;;15.38;11.20;;;;;;;;;;4950188;23;20078;-57
2023/06/17 04:26:13;;;;;;;17.02;12.20;;;;;;;;;;4966349;28;20045;-57
2023/06/17 04:28:39;;;;;;;17.23;12.95;;;;;;;;;;4946926;28;20456;-56
2023/06/17 04:31:05;;;;;;;20.40;14.23;;;;;;;;;;4968626;28;20061;-54
2023/06/17 04:33:31;;;;;;;19.42;13.40;;;;;;;;;;4946784;28;20045;-55
2023/06/17 04:35:58;;;;;;;24.67;14.57;;;;;;;;;;4966302;28;20086;-55
2023/06/17 04:38:24;;;;;;;19.27;13.18;;;;;;;;;;4964713;28;20101;-55
2023/06/17 04:40:53;;;;;;;20.05;14.00;;;;;;;;;;4965212;28;20038;-57
2023/06/17 04:43:24;;;;;;;18.80;14.15;;;;;;;;;;4964447;28;20540;-57
2023/06/17 04:45:51;;;;;;;21.65;14.27;;;;;;;;;;4945689;28;20067;-56
2023/06/17 04:48:17;;;;;;;19.60;15.27;;;;;;;;;;4962464;28;20071;-56
2023/06/17 04:50:43;;;;;;;20.73;16.38;;;;;;;;;;4932143;28;20050;-55
2023/06/17 04:53:10;;;;;;;21.08;15.77;;;;;;;;;;4964228;28;20169;-57
2023/06/17 04:55:36;;;;;;;25.48;16.42;;;;;;;;;;4965248;28;20066;-56
2023/06/17 04:58:03;;;;;;;20.73;15.80;;;;;;;;;;4945905;28;20054;-56
2023/06/17 05:00:30;;;;;;;21.17;16.23;;;;;;;;;;4956197;28;20072;-56
2023/06/17 05:02:56;;;;;;;20.95;15.50;;;;;;;;;;4962704;28;20529;-55
2023/06/17 05:05:22;;;;;;;22.02;15.07;;;;;;;;;;4958520;28;20045;-56
2023/06/17 05:07:48;;;;;;;18.48;13.68;;;;;;;;;;4943305;28;20043;-58
2023/06/17 05:10:14;;;;;;;19.98;14.30;;;;;;;;;;4958880;28;20118;-57
2023/06/17 05:12:43;;;;;;;23.55;14.10;;;;;;;;;;4958227;28;20493;-56
2023/06/17 05:15:10;;;;;;;16.70;12.70;;;;;;;;;;4956354;28;20047;-54
2023/06/17 05:17:36;;;;;;;18.05;14.02;;;;;;;;;;4959432;28;20079;-54
2023/06/17 05:20:02;;;;;;;19.30;13.30;;;;;;;;;;4939966;28;20046;-57
2023/06/17 05:22:28;;;;;;;21.30;15.13;;;;;;;;;;4925818;28;20089;-58
2023/06/17 05:24:54;;;;;;;19.13;13.57;;;;;;;;;;4958372;28;20043;-56
2023/06/17 05:27:20;;;;;;;21.80;13.52;;;;;;;;;;4942177;28;20053;-58
2023/06/17 05:29:46;;;;;;;19.15;13.05;;;;;;;;;;4958822;28;20054;-57
2023/06/17 05:32:12;;;;;;;20.17;13.45;;;;;;;;;;4940155;28;20035;-58
2023/06/17 05:34:38;;;;;;;18.27;12.98;;;;;;;;;;4957361;28;20039;-54
2023/06/17 05:37:04;;;;;;;19.00;13.70;;;;;;;;;;4957066;28;20083;-58
2023/06/17 05:39:30;;;;;;;18.67;12.90;;;;;;;;;;4957803;28;20431;-58
2023/06/17 05:41:56;;;;;;;21.38;13.15;;;;;;;;;;4939815;28;20106;-57
2023/06/17 05:44:22;;;;;;;15.23;12.10;;;;;;;;;;4943554;28;20134;-56
2023/06/17 05:46:48;;;;;;;18.63;13.07;;;;;;;;;;4962572;28;20046;-55
2023/06/17 05:49:15;;;;;;;19.75;13.85;;;;;;;;;;4958416;28;20047;-58
2023/06/17 05:51:42;;;;;;;20.45;13.55;;;;;;;;;;4959452;28;20440;-58
2023/06/17 05:54:08;;;;;;;19.42;13.63;;;;;;;;;;4966656;28;20046;-56
2023/06/17 05:56:34;;;;;;;19.90;13.80;;;;;;;;;;4946149;28;20143;-56
2023/06/17 05:59:00;;;;;;;19.83;14.20;;;;;;;;;;4947822;28;20094;-58
2023/06/17 06:01:26;;;;;;;17.42;12.75;;;;;;;;;;4961441;28;20039;-56
2023/06/17 06:03:52;;;;;;;21.33;12.90;;;;;;;;;;4965756;28;20129;-56
2023/06/17 06:06:18;;;;;;;17.67;12.90;;;;;;;;;;4964186;28;20130;-57
2023/06/17 06:08:44;;;;;;;19.45;12.18;;;;;;;;;;4949314;28;20462;-55
2023/06/17 06:11:10;;;;;;;19.33;12.77;;;;;;;;;;4961593;28;20055;-57
2023/06/17 06:13:36;;;;;;;15.80;11.38;;;;;;;;;;4949367;28;20053;-55
2023/06/17 06:16:03;;;;;;;19.58;12.75;;;;;;;;;;4965209;28;20034;-56
2023/06/17 06:18:29;;;;;;;19.65;12.10;;;;;;;;;;4950355;28;20101;-57
2023/06/17 06:20:55;;;;;;;16.00;11.48;;;;;;;;;;4964477;28;20485;-55
2023/06/17 06:23:21;;;;;;;23.98;11.63;;;;;;;;;;4945355;28;20039;-57
2023/06/17 06:25:47;;;;;;;15.10;10.40;;;;;;;;;;4963060;28;20173;-58
2023/06/17 06:28:13;;;;;;;16.55;10.95;;;;;;;;;;4945276;28;20077;-58
2023/06/17 06:30:39;;;;;;;16.98;11.20;;;;;;;;;;4940440;28;20150;-58
2023/06/17 06:33:05;;;;;;;16.23;10.57;;;;;;;;;;4958108;28;20050;-58
2023/06/17 06:35:31;;;;;;;15.00;10.85;;;;;;;;;;4963437;28;20038;-58
2023/06/17 06:37:57;;;;;;;14.70;10.43;;;;;;;;;;4959953;28;20130;-58
2023/06/17 06:40:23;;;;;;;14.07;10.85;;;;;;;;;;4928999;28;20043;-58
2023/06/17 06:42:50;;;;;;;19.33;11.65;;;;;;;;;;4954602;28;20467;-56
2023/06/17 06:45:16;;;;;;;19.30;12.23;;;;;;;;;;4955442;28;20531;-55
2023/06/17 06:47:42;;;;;;;17.20;11.68;;;;;;;;;;4960857;28;20066;-58
2023/06/17 06:50:08;;;;;;;17.08;10.85;;;;;;;;;;4965794;28;20129;-57
2023/06/17 06:52:34;;;;;;;18.23;10.98;;;;;;;;;;4970472;28;20449;-58
2023/06/17 06:55:00;;;;;;;16.73;10.70;;;;;;;;;;4970406;28;20104;-59
2023/06/17 06:57:27;;;;;;;18.20;11.65;;;;;;;;;;4970344;28;20042;-58
2023/06/17 06:59:52;;;;;;;18.38;11.27;;;;;;;;;;4967134;28;20046;-58
2023/06/17 07:02:19;;;;;;;16.75;11.32;;;;;;;;;;4970513;28;20412;-59
2023/06/17 07:04:45;;;;;;;15.60;11.15;;;;;;;;;;4972892;28;20489;-57
2023/06/17 07:07:11;;;;;;;18.60;12.20;;;;;;;;;;4957274;28;20055;-56
2023/06/17 07:09:39;;;;;;;17.35;12.10;;;;;;;;;;4956865;28;20105;-59
2023/06/17 07:12:05;;;;;;;21.42;11.57;;;;;;;;;;4974393;28;20061;-59
2023/06/17 07:14:31;;;;;;;16.58;10.80;;;;;;;;;;4973341;28;20497;-56
2023/06/17 07:16:58;;;;;;;18.50;11.10;;;;;;;;;;4973941;28;20093;-59
2023/06/17 07:19:24;;;;;;;15.27;10.40;;;;;;;;;;4941045;28;20054;-59
2023/06/17 07:21:50;;;;;;;19.98;11.68;;;;;;;;;;4973972;28;20050;-59
2023/06/17 07:24:16;;;;;;;16.58;11.60;;;;;;;;;;4973862;28;20497;-59
2023/06/17 07:26:43;;;;;;;17.83;10.32;;;;;;;;;;4973843;28;20117;-59
2023/06/17 07:29:09;;;;;;;17.88;11.55;;;;;;;;;;4974045;28;20505;-58
2023/06/17 07:31:35;;;;;;;15.57;10.07;;;;;;;;;;4973819;28;20077;-59
2023/06/17 07:34:01;;;;;;;16.83;11.23;;;;;;;;;;4974024;28;20054;-59
2023/06/17 07:36:27;;;;;;;17.08;11.25;;;;;;;;;;4973878;28;20114;-59
2023/06/17 07:38:53;;;;;;;13.65;10.50;;;;;;;;;;4973870;28;20121;-59
2023/06/17 07:41:20;;;;;;;15.82;10.63;;;;;;;;;;4973584;28;20034;-57
2023/06/17 07:43:46;;;;;;;17.17;9.98;;;;;;;;;;4973139;28;20130;-57
2023/06/17 07:46:12;;;;;;;15.02;10.07;;;;;;;;;;4971988;28;20133;-57
2023/06/17 07:48:38;;;;;;;14.57;9.82;;;;;;;;;;4953374;28;20046;-56
2023/06/17 07:53:32;;;;;;;15.35;10.10;;;;;;;;;;4970321;28;20109;-62
2023/06/17 07:55:59;;;;;;;15.43;10.60;;;;;;;;;;4966502;28;20038;-62
2023/06/17 07:58:25;;;;;;;13.93;9.18;;;;;;;;;;4968643;28;20035;-62
2023/06/17 08:00:51;;;;;;;16.80;10.02;;;;;;;;;;4972575;28;20049;-62
2023/06/17 08:03:17;;;;;;;14.00;9.65;;;;;;;;;;4970753;28;20050;-63
2023/06/17 08:05:43;;;;;;;19.27;10.48;;;;;;;;;;4966766;28;20039;-62
2023/06/17 08:08:09;;;;;;;14.88;10.38;;;;;;;;;;4959583;28;20058;-63
2023/06/17 08:10:36;;;;;;;17.00;11.25;;;;;;;;;;4966724;28;20085;-63
2023/06/17 08:13:02;;;;;;;16.10;11.27;;;;;;;;;;4970992;28;20043;-62
2023/06/17 08:15:28;;;;;;;15.10;10.55;;;;;;;;;;4947339;28;20035;-61
2023/06/17 08:17:55;;;;;;;16.33;10.20;;;;;;;;;;4963469;28;20035;-62
2023/06/17 08:20:21;;;;;;;16.73;11.02;;;;;;;;;;4970255;28;20104;-63
2023/06/17 08:22:47;;;;;;;15.60;10.88;;;;;;;;;;5013006;23;20047;-59
2023/06/17 08:25:13;;;;;;;15.98;11.43;;;;;;;;;;4965784;28;20567;-58
2023/06/17 08:27:42;;;;;;;16.15;11.13;;;;;;;;;;4941775;28;20039;-58
2023/06/17 08:30:08;;;;;;;14.98;10.23;;;;;;;;;;4959039;28;20523;-58
2023/06/17 08:32:34;;;;;;;21.23;12.82;;;;;;;;;;5044150;23;20051;-57
2023/06/17 08:35:06;;;;;;;16.55;10.18;;;;;;;;;;5044390;23;20130;-62
2023/06/17 08:37:32;;;;;;;15.13;10.65;;;;;;;;;;4946420;29;20118;-63
2023/06/17 08:39:58;;;;;;;14.27;10.63;;;;;;;;;;4952425;29;20039;-63
2023/06/17 08:42:24;;;;;;;15.48;10.35;;;;;;;;;;4954323;28;20039;-63
2023/06/17 08:44:50;;;;;;;15.48;11.07;;;;;;;;;;4953724;29;20046;-63
2023/06/17 08:47:17;;;;;;;16.90;11.38;;;;;;;;;;4952666;29;20471;-63
2023/06/17 08:49:44;;;;;;;14.35;11.05;;;;;;;;;;4953987;29;20047;-63
2023/06/17 08:52:13;;;;;;;15.98;11.27;;;;;;;;;;4932480;29;20047;-63
2023/06/17 08:54:42;;;;;;;18.38;11.30;;;;;;;;;;4953122;29;20050;-65
2023/06/17 08:57:11;;;;;;;17.17;11.65;;;;;;;;;;4953109;29;20101;-65
2023/06/17 08:59:37;;;;;;;18.23;12.02;;;;;;;;;;4954013;28;20083;-66
2023/06/17 09:02:04;;;;;;;17.10;11.93;;;;;;;;;;4936351;29;20047;-67
2023/06/17 09:04:30;;;;;;;18.83;11.18;;;;;;;;;;4954180;29;20081;-64
2023/06/17 09:06:56;;;;;;;16.45;12.10;;;;;;;;;;4936814;29;20053;-65
2023/06/17 09:09:22;;;;;;;15.82;11.07;;;;;;;;;;4950404;29;20047;-66
2023/06/17 09:11:50;;;;;;;18.10;11.40;;;;;;;;;;4953801;28;20043;-66
2023/06/17 09:14:17;;;;;;;15.30;10.77;;;;;;;;;;4939641;29;20055;-66
2023/06/17 09:16:43;;;;;;;18.92;12.38;;;;;;;;;;4953976;28;20114;-66
2023/06/17 09:19:10;;;;;;;19.10;11.50;;;;;;;;;;4953590;29;20081;-65
2023/06/17 09:21:36;;;;;;;22.02;12.23;;;;;;;;;;4949681;28;20044;-65
2023/06/17 09:24:09;;;;;;;20.15;13.07;;;;;;;;;;4931690;29;20066;-66
2023/06/17 09:26:39;;;;;;;17.73;12.15;;;;;;;;;;4953669;28;20039;-66
2023/06/17 09:29:06;;;;;;;16.17;11.82;;;;;;;;;;4953401;28;20043;-65
2023/06/17 09:31:36;;;;;;;16.02;10.95;;;;;;;;;;4950025;28;20429;-65
2023/06/17 09:34:04;;;;;;;14.13;10.60;;;;;;;;;;4952712;28;20188;-65
2023/06/17 09:36:30;;;;;;;21.10;13.25;;;;;;;;;;4954253;29;20047;-65
2023/06/17 09:38:56;;;;;;;15.65;10.35;;;;;;;;;;4954955;28;20227;-65
2023/06/17 09:41:23;;;;;;;19.27;12.60;;;;;;;;;;4953661;28;20501;-65
2023/06/17 09:43:52;;;;;;;18.13;12.52;;;;;;;;;;4953619;29;20404;-66
2023/06/17 09:46:25;;;;;;;18.65;12.50;;;;;;;;;;4943958;29;20039;-65
2023/06/17 09:48:52;;;;;;;18.27;11.80;;;;;;;;;;4932264;29;20135;-65
2023/06/17 09:51:23;;;;;;;16.33;10.75;;;;;;;;;;4947444;29;20164;-67
2023/06/17 09:53:51;;;;;;;15.90;11.13;;;;;;;;;;4948231;29;20082;-66
2023/06/17 09:56:18;;;;;;;17.38;10.93;;;;;;;;;;4935960;29;20587;-66
2023/06/17 09:58:44;;;;;;;13.77;10.68;;;;;;;;;;4931675;29;20401;-66
2023/06/17 10:01:11;;;;;;;16.42;11.15;;;;;;;;;;4945488;28;20498;-67
2023/06/17 10:03:39;;;;;;;16.27;10.70;;;;;;;;;;4932959;29;20043;-67
2023/06/17 10:06:12;;;;;;;17.42;9.98;;;;;;;;;;4953729;28;20047;-67
2023/06/17 10:08:47;;;;;;;18.83;10.75;;;;;;;;;;4936743;28;20048;-66
2023/06/17 10:11:15;;;;;;;14.15;10.75;;;;;;;;;;4936522;28;20046;-66
2023/06/17 10:13:42;;;;;;;18.08;11.10;;;;;;;;;;4951102;29;20089;-67
2023/06/17 10:16:10;;;;;;;15.90;10.82;;;;;;;;;;4952992;29;20035;-66
2023/06/17 10:18:37;;;;;;;15.15;9.63;;;;;;;;;;4952844;29;20122;-66
2023/06/17 10:21:04;;;;;;;15.45;10.50;;;;;;;;;;4949770;28;20074;-66
2023/06/17 10:23:30;;;;;;;14.63;9.95;;;;;;;;;;4953269;29;20147;-66
2023/06/17 10:25:56;;;;;;;14.30;10.40;;;;;;;;;;4946411;28;20090;-66
2023/06/17 10:28:22;;;;;;;15.85;10.45;;;;;;;;;;4952828;28;20039;-66
2023/06/17 10:30:51;;;;;;;15.70;9.25;;;;;;;;;;4932179;29;20031;-66
2023/06/17 10:33:26;;;;;;;15.98;10.07;;;;;;;;;;4943167;28;20039;-66
2023/06/17 10:36:05;;;;;;;15.48;10.50;;;;;;;;;;4949105;29;20167;-66
2023/06/17 10:38:34;;;;;;;14.23;10.18;;;;;;;;;;4952614;28;20046;-66
2023/06/17 10:41:00;;;;;;;16.02;9.80;;;;;;;;;;4939537;28;20047;-66
2023/06/17 10:43:27;;;;;;;12.73;9.80;;;;;;;;;;4956639;29;20047;-66
2023/06/17 10:45:54;;;;;;;13.43;9.55;;;;;;;;;;4958673;28;20043;-65
2023/06/17 10:48:20;;;;;;;14.73;9.52;;;;;;;;;;4955466;28;20051;-66
2023/06/17 10:50:50;;;;;;;11.43;8.63;;;;;;;;;;4958601;28;20047;-66
2023/06/17 10:53:17;;;;;;;13.45;9.20;;;;;;;;;;4940910;29;20127;-66
2023/06/17 10:55:43;;;;;;;14.88;10.45;;;;;;;;;;4959156;28;20043;-66
2023/06/17 10:58:10;;;;;;;16.13;9.55;;;;;;;;;;4952928;28;20432;-65
2023/06/17 11:00:36;;;;;;;11.98;8.82;;;;;;;;;;4959203;29;20043;-65
2023/06/17 11:03:02;;;;;;;11.55;8.02;;;;;;;;;;4941787;28;20038;-65
2023/06/17 11:05:35;;;;;;;11.85;9.30;;;;;;;;;;4956452;28;20045;-66
2023/06/17 11:08:02;;;;;;;16.50;8.75;;;;;;;;;;4955972;28;20390;-66
2023/06/17 11:10:28;;;;;;;16.70;9.52;;;;;;;;;;4959109;28;20043;-65
2023/06/17 11:12:54;;;;;;;15.45;9.68;;;;;;;;;;4941384;28;20047;-66
2023/06/17 11:15:22;;;;;;;14.40;9.85;;;;;;;;;;4959345;28;20046;-66
2023/06/17 11:17:48;;;;;;;13.73;8.88;;;;;;;;;;4959096;28;20043;-65
2023/06/17 11:20:14;;;;;;;13.77;9.15;;;;;;;;;;4941679;29;20039;-66
2023/06/17 11:22:40;;;;;;;15.38;9.20;;;;;;;;;;4941828;29;20061;-65
2023/06/17 11:25:06;;;;;;;14.15;9.65;;;;;;;;;;4955781;29;20043;-66
2023/06/17 11:27:33;;;;;;;12.85;8.95;;;;;;;;;;4959147;28;20051;-66
2023/06/17 11:30:00;;;;;;;15.55;8.88;;;;;;;;;;4937597;28;20062;-66
2023/06/17 11:36:23;;;;;;;13.02;8.18;;;;;;;;;;4930026;28;20051;-85
2023/06/17 11:39:25;;;;;;;13.90;7.25;;;;;;;;;;4954514;28;20062;-85
2023/06/17 11:42:15;;;;;;;12.45;8.57;;;;;;;;;;4951171;28;20090;-85
2023/06/17 11:44:58;;;;;;;13.00;8.40;;;;;;;;;;4948993;28;20606;-83
2023/06/17 11:47:36;;;;;;;11.77;8.70;;;;;;;;;;4951075;28;20053;-84
2023/06/17 11:50:19;;;;;;;10.20;7.88;;;;;;;;;;4963557;28;20522;-86
2023/06/17 11:53:05;;;;;;;12.00;8.18;;;;;;;;;;4934483;28;20063;-86
2023/06/17 11:55:41;;;;;;;10.82;7.68;;;;;;;;;;4935207;28;20083;-85
2023/06/17 11:58:19;;;;;;;12.38;8.73;;;;;;;;;;4932202;28;20066;-83
2023/06/17 12:03:44;;;;;;;12.93;8.43;;;;;;;;;;4959789;28;20477;-56
2023/06/17 12:06:16;;;;;;;12.05;8.85;;;;;;;;;;4964473;28;20050;-57
2023/06/17 12:08:42;;;;;;;12.20;7.90;;;;;;;;;;4972612;28;20042;-55
2023/06/17 12:11:32;;;;;;;12.45;9.02;;;;;;;;;;4967247;28;20039;-53
2023/06/17 12:13:59;;;;;;;12.93;8.15;;;;;;;;;;4942901;28;20042;-56
2023/06/17 12:16:33;;;;;;;11.50;9.05;;;;;;;;;;4967193;28;20035;-56
2023/06/17 12:18:59;;;;;;;13.48;9.18;;;;;;;;;;4939662;28;20050;-56
2023/06/17 12:21:30;;;;;;;15.40;9.48;;;;;;;;;;4952651;28;20035;-55
2023/06/17 12:23:57;;;;;;;14.75;9.27;;;;;;;;;;4954152;28;20046;-57
2023/06/17 12:26:24;;;;;;;13.30;8.98;;;;;;;;;;4959645;28;20052;-56
2023/06/17 12:28:51;;;;;;;12.93;9.18;;;;;;;;;;4959645;28;21087;-56
2023/06/17 12:31:21;;;;;;;13.48;9.10;;;;;;;;;;4954836;28;20119;-56
2023/06/17 12:33:51;;;;;;;12.10;8.57;;;;;;;;;;4954292;28;20039;-55
2023/06/17 12:36:18;;;;;;;12.52;7.95;;;;;;;;;;4951925;28;20047;-57
2023/06/17 12:38:46;;;;;;;12.18;8.20;;;;;;;;;;4939992;28;20047;-56
2023/06/17 12:41:13;;;;;;;13.65;8.82;;;;;;;;;;4937516;29;20035;-56
2023/06/17 12:43:40;;;;;;;12.13;8.63;;;;;;;;;;4957225;28;20035;-57
2023/06/17 12:46:08;;;;;;;10.13;6.45;;;;;;;;;;4954020;28;20047;-57
2023/06/17 12:48:34;;;;;;;13.88;7.47;;;33.30;60.70;;;;;;4955431;28;20126;-57
2023/06/17 12:51:00;;;;;;;10.10;6.35;;;35.10;36.60;;;;;;4952502;28;20096;-54
2023/06/17 12:53:27;;;;;;;12.02;6.72;;;36.70;12.60;;;;;;4939247;29;20043;-58
2023/06/17 12:55:57;;;;;;;10.77;6.43;;;38.30;1.00;;;;;;4950238;28;20039;-54
2023/06/17 12:58:24;;;;;;;10.88;6.78;;;39.70;1.00;;;;;;4952696;28;20370;-56
2023/06/17 13:00:49;;;;;;;8.50;5.97;;;40.60;1.00;;;;;;4955823;28;20031;-61
2023/06/17 13:03:15;;;;;;;11.63;7.50;;;41.50;1.00;;;;;;4944762;28;20034;-55
2023/06/17 13:05:41;;;;;;;9.68;5.82;;;42.60;1.00;;;;;;4926824;28;20035;-56
2023/06/17 13:08:06;;;;;;;8.20;5.88;;;43.70;1.00;;;;;;4953290;28;20702;-62
2023/06/17 13:10:32;;;;;;;8.45;5.45;;;44.40;1.00;;;;;;4938573;29;20126;-55
2023/06/17 13:12:57;;;;;;;8.82;5.43;;;45.10;1.00;;;;;;4959000;28;20039;-57
2023/06/17 13:15:24;;;;;;;8.43;5.60;;;45.80;1.00;;;;;;4953683;28;20358;-57
2023/06/17 13:17:50;;;;;;;9.90;5.97;;;46.50;1.00;;;;;;4952759;28;20501;-57
2023/06/17 13:20:15;;;;;;;9.68;5.88;;;46.80;1.00;;;;;;4953932;28;20035;-57
2023/06/17 13:22:42;;;;;;;9.85;6.35;;;47.30;99.90;;;;;;4959319;28;20415;-57
2023/06/17 13:25:08;;;;;;;10.20;5.95;;;47.60;99.90;;;;;;4953306;28;20117;-56
2023/06/17 13:27:34;;;;;;;14.02;5.88;;;47.50;99.90;;;;;;4940106;28;20043;-57
2023/06/17 13:30:01;;;;;;;8.55;5.43;;;47.30;99.90;;;;;;4938830;28;20064;-58
2023/06/17 13:32:26;;;;;;;9.35;5.88;;;47.50;99.90;;;;;;4923326;28;20128;-57
2023/06/17 13:34:53;;;;;;;8.20;5.22;;;47.80;99.90;;;;;;4934509;28;20043;-57
2023/06/17 13:37:18;;;;;;;8.48;5.70;;;48.30;99.90;;;;;;4954557;28;20042;-57
2023/06/17 13:39:44;;;;;;;9.35;5.57;;;48.20;99.90;;;;;;4952432;28;20429;-57
2023/06/17 13:42:11;;;;;;;7.35;5.70;;;48.00;99.90;;;;;;4952148;28;20512;-58
2023/06/17 13:44:37;;;;;;;8.80;5.45;;;47.80;99.90;;;;;;4934859;29;20044;-58
2023/06/17 13:47:05;;;;;;;8.23;5.97;;;47.90;99.90;;;;;;4950872;28;20370;-57
2023/06/17 13:49:32;;;;;;;9.43;6.30;;;47.90;99.90;;;;;;4953026;28;20457;-57
2023/06/17 13:51:58;;;;;;;8.82;5.50;;;47.60;99.90;;;;;;4956577;28;20043;-57
2023/06/17 13:54:26;;;;;;;8.75;5.65;;;47.30;99.90;;;;;;4957781;28;20057;-56
2023/06/17 13:56:53;;;;;;;9.23;5.15;;;47.70;99.90;;;;;;4934081;28;20039;-57
2023/06/17 13:59:19;;;;;;;8.50;5.55;;;47.60;99.90;;;;;;4950977;28;20035;-56
2023/06/17 14:01:45;;;;;;;7.93;5.53;;;47.50;99.90;;;;;;4954037;28;20441;-55
2023/06/17 14:04:11;;;;;;;8.52;5.63;;;47.50;99.90;;;;;;4935151;28;20035;-56
2023/06/17 14:06:37;;;;;;;9.30;6.07;;;47.80;99.90;;;;;;4955303;28;20382;-56
2023/06/17 14:09:04;;;;;;;7.47;4.80;;;47.80;99.90;;;;;;4935926;28;20069;-56
2023/06/17 14:11:30;;;;;;;8.38;5.13;;;48.20;99.90;;;;;;4937405;28;20051;-56
2023/06/17 14:13:56;;;;;;;9.98;5.30;;;48.50;99.90;;;;;;4932985;28;20043;-56
2023/06/17 14:16:21;;;;;;;7.90;5.25;;;48.70;99.90;;;;;;4949988;28;20478;-57
2023/06/17 14:18:47;;;;;;;7.35;4.93;;;49.00;99.90;;;;;;4942740;29;20039;-57
2023/06/17 14:21:33;;;;;;;9.07;5.18;;;49.00;99.90;;;;;;4951795;28;20031;-55